sensor_id;sensor_type;location;lat;lon;timestamp;P1;durP1;ratioP1;P2;durP2;ratioP2
30743;SDS011;17486;46.738;7.622;2024-01-30T00:02:15;12.18;;;7.90;;
30743;SDS011;17486;46.738;7.622;2024-01-30T00:04:41;10.82;;;7.47;;
30743;SDS011;17486;46.738;7.622;2024-01-30T00:07:06;11.60;;;7.80;;
30743;SDS011;17486;46.738;7.622;2024-01-30T00:09:32;10.90;;;7.60;;
30743;SDS011;17486;46.738;7.622;2024-01-30T00:11:57;11.73;;;7.85;;
30743;SDS011;17486;46.738;7.622;2024-01-30T00:14:23;13.52;;;8.18;;
30743;SDS011;17486;46.738;7.622;2024-01-30T00:16:48;11.30;;;7.90;;
30743;SDS011;17486;46.738;7.622;2024-01-30T00:19:15;11.48;;;7.95;;
30743;SDS011;17486;46.738;7.622;2024-01-30T00:21:41;11.70;;;8.82;;
30743;SDS011;17486;46.738;7.622;2024-01-30T00:24:06;13.43;;;8.43;;
30743;SDS011;17486;46.738;7.622;2024-01-30T00:26:32;12.13;;;8.07;;
30743;SDS011;17486;46.738;7.622;2024-01-30T00:28:57;12.88;;;8.43;;
30743;SDS011;17486;46.738;7.622;2024-01-30T00:31:22;11.15;;;7.95;;
30743;SDS011;17486;46.738;7.622;2024-01-30T00:33:48;10.88;;;7.78;;
30743;SDS011;17486;46.738;7.622;2024-01-30T00:36:13;10.00;;;7.82;;
30743;SDS011;17486;46.738;7.622;2024-01-30T00:38:39;8.55;;;7.22;;
30743;SDS011;17486;46.738;7.622;2024-01-30T00:41:08;10.30;;;7.45;;
30743;SDS011;17486;46.738;7.622;2024-01-30T00:43:34;11.32;;;7.93;;
30743;SDS011;17486;46.738;7.622;2024-01-30T00:45:59;10.27;;;7.60;;
30743;SDS011;17486;46.738;7.622;2024-01-30T00:48:25;10.63;;;6.97;;
30743;SDS011;17486;46.738;7.622;2024-01-30T00:50:50;10.07;;;6.85;;
30743;SDS011;17486;46.738;7.622;2024-01-30T00:53:15;10.95;;;7.13;;
30743;SDS011;17486;46.738;7.622;2024-01-30T00:55:41;10.52;;;7.10;;
30743;SDS011;17486;46.738;7.622;2024-01-30T00:58:07;11.75;;;6.95;;
30743;SDS011;17486;46.738;7.622;2024-01-30T01:00:32;10.52;;;6.55;;
30743;SDS011;17486;46.738;7.622;2024-01-30T01:02:58;10.00;;;5.93;;
30743;SDS011;17486;46.738;7.622;2024-01-30T01:05:24;10.07;;;6.00;;
30743;SDS011;17486;46.738;7.622;2024-01-30T01:07:49;10.52;;;5.82;;
30743;SDS011;17486;46.738;7.622;2024-01-30T01:10:16;7.95;;;5.85;;
30743;SDS011;17486;46.738;7.622;2024-01-30T01:12:42;6.63;;;5.20;;
30743;SDS011;17486;46.738;7.622;2024-01-30T01:15:08;7.57;;;5.65;;
30743;SDS011;17486;46.738;7.622;2024-01-30T01:17:35;9.82;;;6.22;;
30743;SDS011;17486;46.738;7.622;2024-01-30T01:20:01;9.15;;;6.30;;
30743;SDS011;17486;46.738;7.622;2024-01-30T01:22:27;10.93;;;6.35;;
30743;SDS011;17486;46.738;7.622;2024-01-30T01:24:52;9.77;;;6.35;;
30743;SDS011;17486;46.738;7.622;2024-01-30T01:27:18;8.95;;;6.82;;
30743;SDS011;17486;46.738;7.622;2024-01-30T01:29:43;8.65;;;6.13;;
30743;SDS011;17486;46.738;7.622;2024-01-30T01:32:10;7.07;;;5.50;;
30743;SDS011;17486;46.738;7.622;2024-01-30T01:34:35;9.25;;;6.25;;
30743;SDS011;17486;46.738;7.622;2024-01-30T01:37:01;8.25;;;5.82;;
30743;SDS011;17486;46.738;7.622;2024-01-30T01:39:27;8.02;;;5.75;;
30743;SDS011;17486;46.738;7.622;2024-01-30T01:41:52;9.80;;;6.13;;
30743;SDS011;17486;46.738;7.622;2024-01-30T01:44:18;8.80;;;6.32;;
30743;SDS011;17486;46.738;7.622;2024-01-30T01:46:44;7.05;;;4.93;;
30743;SDS011;17486;46.738;7.622;2024-01-30T01:49:09;8.60;;;5.38;;
30743;SDS011;17486;46.738;7.622;2024-01-30T01:51:35;7.72;;;5.40;;
30743;SDS011;17486;46.738;7.622;2024-01-30T01:54:02;8.68;;;5.93;;
30743;SDS011;17486;46.738;7.622;2024-01-30T01:56:29;7.13;;;5.47;;
30743;SDS011;17486;46.738;7.622;2024-01-30T01:58:55;9.40;;;5.70;;
30743;SDS011;17486;46.738;7.622;2024-01-30T02:01:25;9.85;;;6.20;;
30743;SDS011;17486;46.738;7.622;2024-01-30T02:03:53;8.70;;;5.85;;
30743;SDS011;17486;46.738;7.622;2024-01-30T02:06:19;8.50;;;5.57;;
30743;SDS011;17486;46.738;7.622;2024-01-30T02:08:45;10.73;;;5.90;;
30743;SDS011;17486;46.738;7.622;2024-01-30T02:11:10;8.73;;;5.75;;
30743;SDS011;17486;46.738;7.622;2024-01-30T02:13:36;7.57;;;5.05;;
30743;SDS011;17486;46.738;7.622;2024-01-30T02:16:02;8.15;;;5.40;;
30743;SDS011;17486;46.738;7.622;2024-01-30T02:18:27;9.00;;;5.65;;
30743;SDS011;17486;46.738;7.622;2024-01-30T02:20:53;8.70;;;5.30;;
30743;SDS011;17486;46.738;7.622;2024-01-30T02:23:22;7.03;;;5.18;;
30743;SDS011;17486;46.738;7.622;2024-01-30T02:25:50;12.23;;;5.50;;
30743;SDS011;17486;46.738;7.622;2024-01-30T02:28:17;8.73;;;4.97;;
30743;SDS011;17486;46.738;7.622;2024-01-30T02:30:43;7.43;;;4.97;;
30743;SDS011;17486;46.738;7.622;2024-01-30T02:33:09;8.43;;;5.10;;
30743;SDS011;17486;46.738;7.622;2024-01-30T02:35:35;9.73;;;5.82;;
30743;SDS011;17486;46.738;7.622;2024-01-30T02:38:00;10.23;;;5.53;;
30743;SDS011;17486;46.738;7.622;2024-01-30T02:40:26;7.32;;;5.05;;
30743;SDS011;17486;46.738;7.622;2024-01-30T02:42:51;8.65;;;5.38;;
30743;SDS011;17486;46.738;7.622;2024-01-30T02:45:16;9.25;;;5.40;;
30743;SDS011;17486;46.738;7.622;2024-01-30T02:47:42;9.43;;;5.53;;
30743;SDS011;17486;46.738;7.622;2024-01-30T02:50:08;7.38;;;4.93;;
30743;SDS011;17486;46.738;7.622;2024-01-30T02:52:34;10.63;;;5.30;;
30743;SDS011;17486;46.738;7.622;2024-01-30T02:54:59;9.20;;;5.22;;
30743;SDS011;17486;46.738;7.622;2024-01-30T02:57:25;6.68;;;4.82;;
30743;SDS011;17486;46.738;7.622;2024-01-30T02:59:50;8.35;;;5.43;;
30743;SDS011;17486;46.738;7.622;2024-01-30T03:02:16;6.65;;;5.07;;
30743;SDS011;17486;46.738;7.622;2024-01-30T03:04:41;7.25;;;4.95;;
30743;SDS011;17486;46.738;7.622;2024-01-30T03:07:07;7.22;;;5.18;;
30743;SDS011;17486;46.738;7.622;2024-01-30T03:09:33;8.52;;;5.28;;
30743;SDS011;17486;46.738;7.622;2024-01-30T03:11:58;7.70;;;4.95;;
30743;SDS011;17486;46.738;7.622;2024-01-30T03:14:24;8.55;;;5.47;;
30743;SDS011;17486;46.738;7.622;2024-01-30T03:16:49;6.53;;;5.10;;
30743;SDS011;17486;46.738;7.622;2024-01-30T03:19:14;9.20;;;5.57;;
30743;SDS011;17486;46.738;7.622;2024-01-30T03:21:40;7.72;;;4.80;;
30743;SDS011;17486;46.738;7.622;2024-01-30T03:24:05;8.65;;;4.97;;
30743;SDS011;17486;46.738;7.622;2024-01-30T03:26:31;8.82;;;5.82;;
30743;SDS011;17486;46.738;7.622;2024-01-30T03:28:56;7.85;;;5.25;;
30743;SDS011;17486;46.738;7.622;2024-01-30T03:31:22;8.00;;;5.20;;
30743;SDS011;17486;46.738;7.622;2024-01-30T03:33:47;9.45;;;5.97;;
30743;SDS011;17486;46.738;7.622;2024-01-30T03:36:12;8.73;;;5.78;;
30743;SDS011;17486;46.738;7.622;2024-01-30T03:38:38;8.40;;;4.93;;
30743;SDS011;17486;46.738;7.622;2024-01-30T03:41:07;8.15;;;5.10;;
30743;SDS011;17486;46.738;7.622;2024-01-30T03:43:33;8.13;;;5.13;;
30743;SDS011;17486;46.738;7.622;2024-01-30T03:45:59;7.20;;;5.35;;
30743;SDS011;17486;46.738;7.622;2024-01-30T03:48:24;8.73;;;5.55;;
30743;SDS011;17486;46.738;7.622;2024-01-30T03:50:50;8.02;;;5.03;;
30743;SDS011;17486;46.738;7.622;2024-01-30T03:53:17;8.65;;;5.47;;
30743;SDS011;17486;46.738;7.622;2024-01-30T03:55:42;7.40;;;5.35;;
30743;SDS011;17486;46.738;7.622;2024-01-30T03:58:08;8.10;;;5.45;;
30743;SDS011;17486;46.738;7.622;2024-01-30T04:00:33;7.85;;;5.50;;
30743;SDS011;17486;46.738;7.622;2024-01-30T04:02:58;8.07;;;5.15;;
30743;SDS011;17486;46.738;7.622;2024-01-30T04:05:24;8.63;;;4.65;;
30743;SDS011;17486;46.738;7.622;2024-01-30T04:07:49;8.88;;;5.20;;
30743;SDS011;17486;46.738;7.622;2024-01-30T04:10:15;8.57;;;5.63;;
30743;SDS011;17486;46.738;7.622;2024-01-30T04:12:40;9.75;;;5.78;;
30743;SDS011;17486;46.738;7.622;2024-01-30T04:15:05;10.15;;;5.60;;
30743;SDS011;17486;46.738;7.622;2024-01-30T04:17:31;7.63;;;4.97;;
30743;SDS011;17486;46.738;7.622;2024-01-30T04:19:57;10.02;;;5.10;;
30743;SDS011;17486;46.738;7.622;2024-01-30T04:22:23;9.38;;;5.32;;
30743;SDS011;17486;46.738;7.622;2024-01-30T04:24:48;8.48;;;5.43;;
30743;SDS011;17486;46.738;7.622;2024-01-30T04:27:13;7.18;;;5.00;;
30743;SDS011;17486;46.738;7.622;2024-01-30T04:29:39;8.05;;;5.28;;
30743;SDS011;17486;46.738;7.622;2024-01-30T04:32:04;7.35;;;4.70;;
30743;SDS011;17486;46.738;7.622;2024-01-30T04:34:30;6.28;;;4.50;;
30743;SDS011;17486;46.738;7.622;2024-01-30T04:36:55;8.77;;;4.88;;
30743;SDS011;17486;46.738;7.622;2024-01-30T04:39:21;7.40;;;4.70;;
30743;SDS011;17486;46.738;7.622;2024-01-30T04:41:46;7.78;;;5.45;;
30743;SDS011;17486;46.738;7.622;2024-01-30T04:44:11;8.57;;;5.38;;
30743;SDS011;17486;46.738;7.622;2024-01-30T04:46:37;8.02;;;5.93;;
30743;SDS011;17486;46.738;7.622;2024-01-30T04:49:02;8.95;;;5.75;;
30743;SDS011;17486;46.738;7.622;2024-01-30T04:51:28;8.07;;;5.65;;
30743;SDS011;17486;46.738;7.622;2024-01-30T04:53:54;9.30;;;5.80;;
30743;SDS011;17486;46.738;7.622;2024-01-30T04:56:19;8.30;;;6.20;;
30743;SDS011;17486;46.738;7.622;2024-01-30T04:58:45;6.43;;;5.38;;
30743;SDS011;17486;46.738;7.622;2024-01-30T05:01:14;9.32;;;6.10;;
30743;SDS011;17486;46.738;7.622;2024-01-30T05:03:40;12.25;;;5.82;;
30743;SDS011;17486;46.738;7.622;2024-01-30T05:06:05;7.93;;;5.70;;
30743;SDS011;17486;46.738;7.622;2024-01-30T05:08:31;9.00;;;5.65;;
30743;SDS011;17486;46.738;7.622;2024-01-30T05:10:59;7.75;;;5.47;;
30743;SDS011;17486;46.738;7.622;2024-01-30T05:13:25;8.02;;;5.40;;
30743;SDS011;17486;46.738;7.622;2024-01-30T05:15:51;7.38;;;5.35;;
30743;SDS011;17486;46.738;7.622;2024-01-30T05:18:16;11.18;;;6.60;;
30743;SDS011;17486;46.738;7.622;2024-01-30T05:20:41;7.82;;;5.95;;
30743;SDS011;17486;46.738;7.622;2024-01-30T05:23:07;9.23;;;6.15;;
30743;SDS011;17486;46.738;7.622;2024-01-30T05:25:33;8.95;;;5.95;;
30743;SDS011;17486;46.738;7.622;2024-01-30T05:27:58;7.75;;;5.00;;
30743;SDS011;17486;46.738;7.622;2024-01-30T05:30:24;7.63;;;4.82;;
30743;SDS011;17486;46.738;7.622;2024-01-30T05:32:49;7.50;;;5.47;;
30743;SDS011;17486;46.738;7.622;2024-01-30T05:35:14;7.82;;;5.40;;
30743;SDS011;17486;46.738;7.622;2024-01-30T05:37:40;9.82;;;5.57;;
30743;SDS011;17486;46.738;7.622;2024-01-30T05:40:06;14.77;;;8.13;;
30743;SDS011;17486;46.738;7.622;2024-01-30T05:42:32;11.70;;;8.20;;
30743;SDS011;17486;46.738;7.622;2024-01-30T05:44:57;13.50;;;7.78;;
30743;SDS011;17486;46.738;7.622;2024-01-30T05:47:22;7.80;;;5.10;;
30743;SDS011;17486;46.738;7.622;2024-01-30T05:49:48;9.27;;;5.65;;
30743;SDS011;17486;46.738;7.622;2024-01-30T05:52:13;7.10;;;4.68;;
30743;SDS011;17486;46.738;7.622;2024-01-30T05:54:40;8.18;;;5.00;;
30743;SDS011;17486;46.738;7.622;2024-01-30T05:57:05;7.25;;;4.97;;
30743;SDS011;17486;46.738;7.622;2024-01-30T05:59:31;7.53;;;5.18;;
30743;SDS011;17486;46.738;7.622;2024-01-30T06:01:57;8.32;;;5.18;;
30743;SDS011;17486;46.738;7.622;2024-01-30T06:04:22;7.25;;;4.90;;
30743;SDS011;17486;46.738;7.622;2024-01-30T06:06:48;6.63;;;5.00;;
30743;SDS011;17486;46.738;7.622;2024-01-30T06:09:13;9.50;;;5.72;;
30743;SDS011;17486;46.738;7.622;2024-01-30T06:11:39;8.10;;;5.95;;
30743;SDS011;17486;46.738;7.622;2024-01-30T06:14:04;7.65;;;5.05;;
30743;SDS011;17486;46.738;7.622;2024-01-30T06:16:30;8.48;;;5.25;;
30743;SDS011;17486;46.738;7.622;2024-01-30T06:18:56;6.78;;;4.95;;
30743;SDS011;17486;46.738;7.622;2024-01-30T06:21:21;8.57;;;5.65;;
30743;SDS011;17486;46.738;7.622;2024-01-30T06:23:47;9.80;;;5.78;;
30743;SDS011;17486;46.738;7.622;2024-01-30T06:26:12;7.32;;;5.80;;
30743;SDS011;17486;46.738;7.622;2024-01-30T06:28:38;7.78;;;5.10;;
30743;SDS011;17486;46.738;7.622;2024-01-30T06:31:03;8.50;;;5.32;;
30743;SDS011;17486;46.738;7.622;2024-01-30T06:33:29;8.45;;;5.35;;
30743;SDS011;17486;46.738;7.622;2024-01-30T06:35:54;8.10;;;5.75;;
30743;SDS011;17486;46.738;7.622;2024-01-30T06:38:20;8.25;;;5.93;;
30743;SDS011;17486;46.738;7.622;2024-01-30T06:40:45;7.80;;;5.07;;
30743;SDS011;17486;46.738;7.622;2024-01-30T06:43:11;8.68;;;5.43;;
30743;SDS011;17486;46.738;7.622;2024-01-30T06:45:36;9.00;;;5.70;;
30743;SDS011;17486;46.738;7.622;2024-01-30T06:48:02;10.25;;;6.38;;
30743;SDS011;17486;46.738;7.622;2024-01-30T06:50:28;7.55;;;5.57;;
30743;SDS011;17486;46.738;7.622;2024-01-30T06:52:53;8.50;;;5.72;;
30743;SDS011;17486;46.738;7.622;2024-01-30T06:55:19;8.80;;;5.60;;
30743;SDS011;17486;46.738;7.622;2024-01-30T06:57:44;9.57;;;6.30;;
30743;SDS011;17486;46.738;7.622;2024-01-30T07:00:10;11.35;;;6.22;;
30743;SDS011;17486;46.738;7.622;2024-01-30T07:02:36;8.10;;;4.97;;
30743;SDS011;17486;46.738;7.622;2024-01-30T07:05:01;9.85;;;5.30;;
30743;SDS011;17486;46.738;7.622;2024-01-30T07:07:28;8.23;;;5.60;;
30743;SDS011;17486;46.738;7.622;2024-01-30T07:09:54;8.15;;;4.88;;
30743;SDS011;17486;46.738;7.622;2024-01-30T07:12:22;11.45;;;4.85;;
30743;SDS011;17486;46.738;7.622;2024-01-30T07:14:49;7.78;;;4.80;;
30743;SDS011;17486;46.738;7.622;2024-01-30T07:17:15;11.15;;;4.93;;
30743;SDS011;17486;46.738;7.622;2024-01-30T07:19:40;10.38;;;5.10;;
30743;SDS011;17486;46.738;7.622;2024-01-30T07:22:06;13.80;;;5.20;;
30743;SDS011;17486;46.738;7.622;2024-01-30T07:24:31;7.63;;;4.65;;
30743;SDS011;17486;46.738;7.622;2024-01-30T07:26:57;8.40;;;4.75;;
30743;SDS011;17486;46.738;7.622;2024-01-30T07:29:22;10.23;;;4.97;;
30743;SDS011;17486;46.738;7.622;2024-01-30T07:31:47;7.30;;;4.45;;
30743;SDS011;17486;46.738;7.622;2024-01-30T07:34:13;10.18;;;5.22;;
30743;SDS011;17486;46.738;7.622;2024-01-30T07:36:38;11.20;;;4.90;;
30743;SDS011;17486;46.738;7.622;2024-01-30T07:39:04;8.70;;;5.25;;
30743;SDS011;17486;46.738;7.622;2024-01-30T07:41:29;8.98;;;5.53;;
30743;SDS011;17486;46.738;7.622;2024-01-30T07:43:55;10.73;;;6.07;;
30743;SDS011;17486;46.738;7.622;2024-01-30T07:46:20;7.68;;;5.43;;
30743;SDS011;17486;46.738;7.622;2024-01-30T07:48:45;8.32;;;5.57;;
30743;SDS011;17486;46.738;7.622;2024-01-30T07:51:11;7.25;;;5.20;;
30743;SDS011;17486;46.738;7.622;2024-01-30T07:53:36;9.43;;;5.05;;
30743;SDS011;17486;46.738;7.622;2024-01-30T07:56:02;7.65;;;5.63;;
30743;SDS011;17486;46.738;7.622;2024-01-30T07:58:27;7.45;;;6.13;;
30743;SDS011;17486;46.738;7.622;2024-01-30T08:00:53;11.23;;;7.50;;
30743;SDS011;17486;46.738;7.622;2024-01-30T08:03:18;9.82;;;7.70;;
30743;SDS011;17486;46.738;7.622;2024-01-30T08:05:44;12.82;;;7.57;;
30743;SDS011;17486;46.738;7.622;2024-01-30T08:08:09;10.05;;;6.93;;
30743;SDS011;17486;46.738;7.622;2024-01-30T08:10:35;8.05;;;6.35;;
30743;SDS011;17486;46.738;7.622;2024-01-30T08:13:01;8.93;;;6.40;;
30743;SDS011;17486;46.738;7.622;2024-01-30T08:15:27;10.07;;;6.25;;
30743;SDS011;17486;46.738;7.622;2024-01-30T08:17:52;8.35;;;5.97;;
30743;SDS011;17486;46.738;7.622;2024-01-30T08:20:23;7.13;;;5.65;;
30743;SDS011;17486;46.738;7.622;2024-01-30T08:22:48;6.15;;;5.05;;
30743;SDS011;17486;46.738;7.622;2024-01-30T08:25:14;6.35;;;4.75;;
30743;SDS011;17486;46.738;7.622;2024-01-30T08:27:39;7.38;;;4.97;;
30743;SDS011;17486;46.738;7.622;2024-01-30T08:30:08;6.90;;;5.38;;
30743;SDS011;17486;46.738;7.622;2024-01-30T08:32:34;8.98;;;5.25;;
30743;SDS011;17486;46.738;7.622;2024-01-30T08:34:59;10.48;;;6.43;;
30743;SDS011;17486;46.738;7.622;2024-01-30T08:37:28;13.63;;;7.53;;
30743;SDS011;17486;46.738;7.622;2024-01-30T08:39:54;11.85;;;7.75;;
30743;SDS011;17486;46.738;7.622;2024-01-30T08:42:20;10.13;;;6.93;;
30743;SDS011;17486;46.738;7.622;2024-01-30T08:44:47;9.70;;;6.10;;
30743;SDS011;17486;46.738;7.622;2024-01-30T08:47:17;9.23;;;5.78;;
30743;SDS011;17486;46.738;7.622;2024-01-30T08:49:43;11.07;;;6.18;;
30743;SDS011;17486;46.738;7.622;2024-01-30T08:52:09;10.63;;;5.85;;
30743;SDS011;17486;46.738;7.622;2024-01-30T08:54:38;7.78;;;5.38;;
30743;SDS011;17486;46.738;7.622;2024-01-30T08:57:03;8.13;;;5.18;;
30743;SDS011;17486;46.738;7.622;2024-01-30T08:59:29;6.30;;;4.47;;
30743;SDS011;17486;46.738;7.622;2024-01-30T09:01:55;7.80;;;4.32;;
30743;SDS011;17486;46.738;7.622;2024-01-30T09:04:23;6.53;;;4.43;;
30743;SDS011;17486;46.738;7.622;2024-01-30T09:06:49;5.47;;;3.65;;
30743;SDS011;17486;46.738;7.622;2024-01-30T09:09:14;6.32;;;4.22;;
30743;SDS011;17486;46.738;7.622;2024-01-30T09:11:40;5.28;;;3.85;;
30743;SDS011;17486;46.738;7.622;2024-01-30T09:14:05;5.78;;;3.75;;
30743;SDS011;17486;46.738;7.622;2024-01-30T09:16:31;5.80;;;3.95;;
30743;SDS011;17486;46.738;7.622;2024-01-30T09:18:57;5.43;;;3.75;;
30743;SDS011;17486;46.738;7.622;2024-01-30T09:21:22;6.07;;;4.22;;
30743;SDS011;17486;46.738;7.622;2024-01-30T09:23:48;5.30;;;4.00;;
30743;SDS011;17486;46.738;7.622;2024-01-30T09:26:13;5.20;;;3.63;;
30743;SDS011;17486;46.738;7.622;2024-01-30T09:28:38;5.65;;;4.07;;
30743;SDS011;17486;46.738;7.622;2024-01-30T09:31:10;5.32;;;4.03;;
30743;SDS011;17486;46.738;7.622;2024-01-30T09:33:38;9.90;;;4.53;;
30743;SDS011;17486;46.738;7.622;2024-01-30T09:36:04;9.05;;;4.00;;
30743;SDS011;17486;46.738;7.622;2024-01-30T09:38:30;5.45;;;4.18;;
30743;SDS011;17486;46.738;7.622;2024-01-30T09:40:56;6.00;;;4.30;;
30743;SDS011;17486;46.738;7.622;2024-01-30T09:43:29;4.68;;;3.70;;
30743;SDS011;17486;46.738;7.622;2024-01-30T09:45:59;5.60;;;3.85;;
30743;SDS011;17486;46.738;7.622;2024-01-30T09:48:28;5.38;;;4.20;;
30743;SDS011;17486;46.738;7.622;2024-01-30T09:50:55;5.72;;;3.47;;
30743;SDS011;17486;46.738;7.622;2024-01-30T09:53:22;4.75;;;3.60;;
30743;SDS011;17486;46.738;7.622;2024-01-30T09:55:48;6.63;;;3.90;;
30743;SDS011;17486;46.738;7.622;2024-01-30T09:58:15;5.22;;;3.80;;
30743;SDS011;17486;46.738;7.622;2024-01-30T10:00:41;4.38;;;3.47;;
30743;SDS011;17486;46.738;7.622;2024-01-30T10:03:07;8.02;;;4.13;;
30743;SDS011;17486;46.738;7.622;2024-01-30T10:05:32;4.43;;;3.78;;
30743;SDS011;17486;46.738;7.622;2024-01-30T10:08:00;6.07;;;3.78;;
30743;SDS011;17486;46.738;7.622;2024-01-30T10:10:25;9.20;;;5.13;;
30743;SDS011;17486;46.738;7.622;2024-01-30T10:12:51;7.88;;;6.00;;
30743;SDS011;17486;46.738;7.622;2024-01-30T10:15:17;8.70;;;6.32;;
30743;SDS011;17486;46.738;7.622;2024-01-30T10:17:44;9.18;;;5.80;;
30743;SDS011;17486;46.738;7.622;2024-01-30T10:20:10;6.30;;;5.18;;
30743;SDS011;17486;46.738;7.622;2024-01-30T10:22:36;6.95;;;5.40;;
30743;SDS011;17486;46.738;7.622;2024-01-30T10:25:01;9.65;;;5.93;;
30743;SDS011;17486;46.738;7.622;2024-01-30T10:27:27;7.68;;;6.07;;
30743;SDS011;17486;46.738;7.622;2024-01-30T10:29:54;9.55;;;5.95;;
30743;SDS011;17486;46.738;7.622;2024-01-30T10:32:20;8.93;;;5.75;;
30743;SDS011;17486;46.738;7.622;2024-01-30T10:34:46;6.85;;;4.97;;
30743;SDS011;17486;46.738;7.622;2024-01-30T10:37:12;7.18;;;5.00;;
30743;SDS011;17486;46.738;7.622;2024-01-30T10:39:40;9.40;;;5.63;;
30743;SDS011;17486;46.738;7.622;2024-01-30T10:42:10;7.07;;;4.82;;
30743;SDS011;17486;46.738;7.622;2024-01-30T10:44:56;5.82;;;4.63;;
30743;SDS011;17486;46.738;7.622;2024-01-30T10:47:29;7.97;;;4.75;;
30743;SDS011;17486;46.738;7.622;2024-01-30T10:49:55;7.70;;;5.10;;
30743;SDS011;17486;46.738;7.622;2024-01-30T10:52:22;6.70;;;4.97;;
30743;SDS011;17486;46.738;7.622;2024-01-30T10:54:50;9.73;;;5.30;;
30743;SDS011;17486;46.738;7.622;2024-01-30T10:57:17;9.40;;;5.32;;
30743;SDS011;17486;46.738;7.622;2024-01-30T10:59:43;6.70;;;4.68;;
30743;SDS011;17486;46.738;7.622;2024-01-30T11:02:10;8.18;;;4.50;;
30743;SDS011;17486;46.738;7.622;2024-01-30T11:04:45;8.07;;;5.00;;
30743;SDS011;17486;46.738;7.622;2024-01-30T11:07:14;7.13;;;4.55;;
30743;SDS011;17486;46.738;7.622;2024-01-30T11:09:52;5.88;;;4.45;;
30743;SDS011;17486;46.738;7.622;2024-01-30T11:12:24;6.00;;;4.93;;
30743;SDS011;17486;46.738;7.622;2024-01-30T11:15:00;7.18;;;4.50;;
30743;SDS011;17486;46.738;7.622;2024-01-30T11:17:39;5.70;;;4.57;;
30743;SDS011;17486;46.738;7.622;2024-01-30T11:22:47;6.80;;;4.07;;
30743;SDS011;17486;46.738;7.622;2024-01-30T11:25:14;7.85;;;4.32;;
30743;SDS011;17486;46.738;7.622;2024-01-30T11:27:45;5.53;;;4.00;;
30743;SDS011;17486;46.738;7.622;2024-01-30T11:30:20;4.13;;;3.72;;
30743;SDS011;17486;46.738;7.622;2024-01-30T11:35:24;5.88;;;3.80;;
30743;SDS011;17486;46.738;7.622;2024-01-30T11:37:50;5.10;;;3.70;;
30743;SDS011;17486;46.738;7.622;2024-01-30T11:40:16;127.32;;;81.32;;
30743;SDS011;17486;46.738;7.622;2024-01-30T11:42:41;163.30;;;103.88;;
30743;SDS011;17486;46.738;7.622;2024-01-30T11:45:08;163.02;;;101.18;;
30743;SDS011;17486;46.738;7.622;2024-01-30T11:47:35;60.35;;;40.28;;
30743;SDS011;17486;46.738;7.622;2024-01-30T11:50:02;20.67;;;14.32;;
30743;SDS011;17486;46.738;7.622;2024-01-30T11:52:31;9.52;;;5.63;;
30743;SDS011;17486;46.738;7.622;2024-01-30T11:54:56;6.28;;;3.70;;
30743;SDS011;17486;46.738;7.622;2024-01-30T11:57:22;5.05;;;4.00;;
30743;SDS011;17486;46.738;7.622;2024-01-30T11:59:47;4.95;;;3.75;;
30743;SDS011;17486;46.738;7.622;2024-01-30T12:02:16;5.85;;;3.63;;
30743;SDS011;17486;46.738;7.622;2024-01-30T12:04:42;3.95;;;3.55;;
30743;SDS011;17486;46.738;7.622;2024-01-30T12:07:07;3.90;;;3.50;;
30743;SDS011;17486;46.738;7.622;2024-01-30T12:09:33;6.32;;;3.88;;
30743;SDS011;17486;46.738;7.622;2024-01-30T12:11:58;5.25;;;4.20;;
30743;SDS011;17486;46.738;7.622;2024-01-30T12:14:24;4.22;;;3.83;;
30743;SDS011;17486;46.738;7.622;2024-01-30T12:16:51;5.78;;;3.92;;
30743;SDS011;17486;46.738;7.622;2024-01-30T12:19:23;4.97;;;3.65;;
30743;SDS011;17486;46.738;7.622;2024-01-30T12:21:58;4.80;;;3.65;;
30743;SDS011;17486;46.738;7.622;2024-01-30T12:24:25;5.30;;;3.67;;
30743;SDS011;17486;46.738;7.622;2024-01-30T12:26:51;5.63;;;3.80;;
30743;SDS011;17486;46.738;7.622;2024-01-30T12:29:17;4.22;;;3.83;;
30743;SDS011;17486;46.738;7.622;2024-01-30T12:31:45;5.38;;;3.85;;
30743;SDS011;17486;46.738;7.622;2024-01-30T12:34:13;4.50;;;3.10;;
30743;SDS011;17486;46.738;7.622;2024-01-30T12:36:39;3.28;;;2.95;;
30743;SDS011;17486;46.738;7.622;2024-01-30T12:39:05;4.88;;;3.30;;
30743;SDS011;17486;46.738;7.622;2024-01-30T12:41:31;3.47;;;2.50;;
30743;SDS011;17486;46.738;7.622;2024-01-30T12:43:57;4.55;;;2.90;;
30743;SDS011;17486;46.738;7.622;2024-01-30T12:46:29;3.50;;;2.53;;
30743;SDS011;17486;46.738;7.622;2024-01-30T12:48:54;4.63;;;2.83;;
30743;SDS011;17486;46.738;7.622;2024-01-30T12:51:19;3.33;;;3.03;;
30743;SDS011;17486;46.738;7.622;2024-01-30T12:53:45;3.65;;;2.53;;
30743;SDS011;17486;46.738;7.622;2024-01-30T12:56:12;3.70;;;2.70;;
30743;SDS011;17486;46.738;7.622;2024-01-30T12:58:38;3.00;;;2.70;;
30743;SDS011;17486;46.738;7.622;2024-01-30T13:01:03;3.85;;;2.90;;
30743;SDS011;17486;46.738;7.622;2024-01-30T13:03:29;8.95;;;3.10;;
30743;SDS011;17486;46.738;7.622;2024-01-30T13:05:54;4.20;;;3.13;;
30743;SDS011;17486;46.738;7.622;2024-01-30T13:08:21;6.28;;;3.30;;
30743;SDS011;17486;46.738;7.622;2024-01-30T13:10:47;5.43;;;3.45;;
30743;SDS011;17486;46.738;7.622;2024-01-30T13:13:12;3.90;;;3.17;;
30743;SDS011;17486;46.738;7.622;2024-01-30T13:15:37;8.02;;;4.43;;
30743;SDS011;17486;46.738;7.622;2024-01-30T13:18:03;7.50;;;4.07;;
30743;SDS011;17486;46.738;7.622;2024-01-30T13:20:30;4.93;;;3.75;;
30743;SDS011;17486;46.738;7.622;2024-01-30T13:22:55;4.57;;;3.90;;
30743;SDS011;17486;46.738;7.622;2024-01-30T13:25:21;5.93;;;4.53;;
30743;SDS011;17486;46.738;7.622;2024-01-30T13:27:46;5.57;;;4.10;;
30743;SDS011;17486;46.738;7.622;2024-01-30T13:30:11;5.80;;;3.75;;
30743;SDS011;17486;46.738;7.622;2024-01-30T13:32:37;5.60;;;4.20;;
30743;SDS011;17486;46.738;7.622;2024-01-30T13:35:03;9.75;;;4.13;;
30743;SDS011;17486;46.738;7.622;2024-01-30T13:37:29;69.75;;;13.80;;
30743;SDS011;17486;46.738;7.622;2024-01-30T13:39:55;32.00;;;7.05;;
30743;SDS011;17486;46.738;7.622;2024-01-30T13:42:21;14.52;;;7.57;;
30743;SDS011;17486;46.738;7.622;2024-01-30T13:44:47;8.30;;;7.50;;
30743;SDS011;17486;46.738;7.622;2024-01-30T13:47:12;7.38;;;5.18;;
30743;SDS011;17486;46.738;7.622;2024-01-30T13:49:37;4.72;;;4.00;;
30743;SDS011;17486;46.738;7.622;2024-01-30T13:52:03;5.80;;;4.30;;
30743;SDS011;17486;46.738;7.622;2024-01-30T13:54:29;7.68;;;4.35;;
30743;SDS011;17486;46.738;7.622;2024-01-30T13:56:55;8.90;;;4.57;;
30743;SDS011;17486;46.738;7.622;2024-01-30T13:59:21;6.65;;;4.38;;
30743;SDS011;17486;46.738;7.622;2024-01-30T14:01:49;4.60;;;4.03;;
30743;SDS011;17486;46.738;7.622;2024-01-30T14:04:15;5.50;;;4.43;;
30743;SDS011;17486;46.738;7.622;2024-01-30T14:06:40;4.70;;;3.72;;
30743;SDS011;17486;46.738;7.622;2024-01-30T14:09:06;6.20;;;4.43;;
30743;SDS011;17486;46.738;7.622;2024-01-30T14:11:32;5.20;;;4.35;;
30743;SDS011;17486;46.738;7.622;2024-01-30T14:13:57;5.75;;;4.55;;
30743;SDS011;17486;46.738;7.622;2024-01-30T14:16:23;4.95;;;4.00;;
30743;SDS011;17486;46.738;7.622;2024-01-30T14:18:49;5.22;;;4.72;;
30743;SDS011;17486;46.738;7.622;2024-01-30T14:21:15;7.90;;;4.53;;
30743;SDS011;17486;46.738;7.622;2024-01-30T14:23:40;6.15;;;4.78;;
30743;SDS011;17486;46.738;7.622;2024-01-30T14:26:06;8.23;;;5.15;;
30743;SDS011;17486;46.738;7.622;2024-01-30T14:28:31;5.90;;;4.63;;
30743;SDS011;17486;46.738;7.622;2024-01-30T14:30:57;5.70;;;4.88;;
30743;SDS011;17486;46.738;7.622;2024-01-30T14:33:22;7.28;;;4.80;;
30743;SDS011;17486;46.738;7.622;2024-01-30T14:35:47;4.95;;;4.20;;
30743;SDS011;17486;46.738;7.622;2024-01-30T14:38:13;4.88;;;4.07;;
30743;SDS011;17486;46.738;7.622;2024-01-30T14:40:38;5.30;;;4.25;;
30743;SDS011;17486;46.738;7.622;2024-01-30T14:43:05;5.97;;;3.78;;
30743;SDS011;17486;46.738;7.622;2024-01-30T14:45:30;5.95;;;4.13;;